sensor_id;sensor_type;location;lat;lon;timestamp;temperature;humidity
42615;DHT22;28754;47.700;7.924;2022-09-29T00:00:04;8.00;99.90
42615;DHT22;28754;47.700;7.924;2022-09-29T00:02:51;8.00;99.90
42615;DHT22;28754;47.700;7.924;2022-09-29T00:05:38;8.10;99.90
42615;DHT22;28754;47.700;7.924;2022-09-29T00:08:27;8.00;99.90
42615;DHT22;28754;47.700;7.924;2022-09-29T00:11:17;8.10;99.90
42615;DHT22;28754;47.700;7.924;2022-09-29T00:14:04;8.00;99.90
42615;DHT22;28754;47.700;7.924;2022-09-29T00:16:51;8.00;99.90
42615;DHT22;28754;47.700;7.924;2022-09-29T00:19:38;7.90;99.90
42615;DHT22;28754;47.700;7.924;2022-09-29T00:22:25;7.90;99.90
42615;DHT22;28754;47.700;7.924;2022-09-29T00:25:11;8.00;99.90
42615;DHT22;28754;47.700;7.924;2022-09-29T00:27:58;7.90;99.90
42615;DHT22;28754;47.700;7.924;2022-09-29T00:30:45;7.90;99.90
42615;DHT22;28754;47.700;7.924;2022-09-29T00:33:33;7.90;99.90
42615;DHT22;28754;47.700;7.924;2022-09-29T00:36:21;7.90;99.90
42615;DHT22;28754;47.700;7.924;2022-09-29T00:39:09;7.80;99.90
42615;DHT22;28754;47.700;7.924;2022-09-29T00:41:55;7.90;99.90
42615;DHT22;28754;47.700;7.924;2022-09-29T00:45:06;7.80;99.90
42615;DHT22;28754;47.700;7.924;2022-09-29T00:48:14;7.80;99.90
42615;DHT22;28754;47.700;7.924;2022-09-29T00:51:05;7.70;99.90
42615;DHT22;28754;47.700;7.924;2022-09-29T00:53:52;7.70;99.90
42615;DHT22;28754;47.700;7.924;2022-09-29T00:56:40;7.60;99.90
42615;DHT22;28754;47.700;7.924;2022-09-29T00:59:51;7.60;99.90
42615;DHT22;28754;47.700;7.924;2022-09-29T01:03:18;7.60;99.90
42615;DHT22;28754;47.700;7.924;2022-09-29T01:06:12;7.60;99.90
42615;DHT22;28754;47.700;7.924;2022-09-29T01:09:05;7.60;99.90
42615;DHT22;28754;47.700;7.924;2022-09-29T01:11:56;7.60;99.90
42615;DHT22;28754;47.700;7.924;2022-09-29T01:14:45;7.70;99.90
42615;DHT22;28754;47.700;7.924;2022-09-29T01:17:32;7.70;99.90
42615;DHT22;28754;47.700;7.924;2022-09-29T01:20:21;7.70;99.90
42615;DHT22;28754;47.700;7.924;2022-09-29T01:23:40;7.70;99.90
42615;DHT22;28754;47.700;7.924;2022-09-29T01:33:30;7.70;99.90
42615;DHT22;28754;47.700;7.924;2022-09-29T01:39:58;7.80;99.90
42615;DHT22;28754;47.700;7.924;2022-09-29T01:43:03;7.80;99.90
42615;DHT22;28754;47.700;7.924;2022-09-29T01:46:10;7.80;99.90
42615;DHT22;28754;47.700;7.924;2022-09-29T01:49:07;7.90;99.90
42615;DHT22;28754;47.700;7.924;2022-09-29T01:51:59;7.80;99.90
42615;DHT22;28754;47.700;7.924;2022-09-29T01:55:11;7.70;99.90
42615;DHT22;28754;47.700;7.924;2022-09-29T01:58:06;7.70;99.90
42615;DHT22;28754;47.700;7.924;2022-09-29T02:00:58;7.70;99.90
42615;DHT22;28754;47.700;7.924;2022-09-29T02:03:55;7.70;99.90
42615;DHT22;28754;47.700;7.924;2022-09-29T02:06:55;7.80;99.90
42615;DHT22;28754;47.700;7.924;2022-09-29T02:09:56;7.70;99.90
42615;DHT22;28754;47.700;7.924;2022-09-29T02:12:50;7.80;99.90
42615;DHT22;28754;47.700;7.924;2022-09-29T02:15:44;7.70;99.90
42615;DHT22;28754;47.700;7.924;2022-09-29T02:18:41;7.70;99.90
42615;DHT22;28754;47.700;7.924;2022-09-29T02:21:36;7.70;99.90
42615;DHT22;28754;47.700;7.924;2022-09-29T02:24:23;7.80;99.90
42615;DHT22;28754;47.700;7.924;2022-09-29T02:27:11;7.80;99.90
42615;DHT22;28754;47.700;7.924;2022-09-29T02:29:58;7.80;99.90
42615;DHT22;28754;47.700;7.924;2022-09-29T02:32:46;7.80;99.90
42615;DHT22;28754;47.700;7.924;2022-09-29T02:35:49;7.60;99.90
42615;DHT22;28754;47.700;7.924;2022-09-29T02:45:36;7.50;99.90
42615;DHT22;28754;47.700;7.924;2022-09-29T02:48:58;7.60;99.90
42615;DHT22;28754;47.700;7.924;2022-09-29T02:51:49;7.60;99.90
42615;DHT22;28754;47.700;7.924;2022-09-29T02:58:27;7.50;99.90
42615;DHT22;28754;47.700;7.924;2022-09-29T03:01:21;7.50;99.90
42615;DHT22;28754;47.700;7.924;2022-09-29T03:04:09;7.50;99.90
42615;DHT22;28754;47.700;7.924;2022-09-29T03:06:56;7.60;99.90
42615;DHT22;28754;47.700;7.924;2022-09-29T03:09:42;7.50;99.90
42615;DHT22;28754;47.700;7.924;2022-09-29T03:12:30;7.60;99.90
42615;DHT22;28754;47.700;7.924;2022-09-29T03:15:16;7.60;99.90
42615;DHT22;28754;47.700;7.924;2022-09-29T03:18:04;7.60;99.90
42615;DHT22;28754;47.700;7.924;2022-09-29T03:20:53;7.60;99.90
42615;DHT22;28754;47.700;7.924;2022-09-29T03:23:40;7.60;99.90
42615;DHT22;28754;47.700;7.924;2022-09-29T03:26:27;7.60;99.90
42615;DHT22;28754;47.700;7.924;2022-09-29T03:29:15;7.60;99.90
42615;DHT22;28754;47.700;7.924;2022-09-29T03:32:02;7.50;99.90
42615;DHT22;28754;47.700;7.924;2022-09-29T03:34:50;7.50;99.90
42615;DHT22;28754;47.700;7.924;2022-09-29T03:37:37;7.50;99.90
42615;DHT22;28754;47.700;7.924;2022-09-29T03:40:25;7.40;99.90
42615;DHT22;28754;47.700;7.924;2022-09-29T03:43:12;7.40;99.90
42615;DHT22;28754;47.700;7.924;2022-09-29T03:45:59;7.50;99.90
42615;DHT22;28754;47.700;7.924;2022-09-29T03:48:46;7.50;99.90
42615;DHT22;28754;47.700;7.924;2022-09-29T03:51:32;7.50;99.90
42615;DHT22;28754;47.700;7.924;2022-09-29T03:54:19;7.60;99.90
42615;DHT22;28754;47.700;7.924;2022-09-29T03:57:06;7.70;99.90
42615;DHT22;28754;47.700;7.924;2022-09-29T03:59:52;7.60;99.90
42615;DHT22;28754;47.700;7.924;2022-09-29T04:03:04;7.60;99.90
42615;DHT22;28754;47.700;7.924;2022-09-29T04:05:52;7.60;99.90
42615;DHT22;28754;47.700;7.924;2022-09-29T04:08:38;7.60;99.90
42615;DHT22;28754;47.700;7.924;2022-09-29T04:11:25;7.60;99.90
42615;DHT22;28754;47.700;7.924;2022-09-29T04:14:12;7.70;99.90
42615;DHT22;28754;47.700;7.924;2022-09-29T04:16:58;7.70;99.90
42615;DHT22;28754;47.700;7.924;2022-09-29T04:19:45;7.70;99.90
42615;DHT22;28754;47.700;7.924;2022-09-29T04:22:32;7.70;99.90
42615;DHT22;28754;47.700;7.924;2022-09-29T04:25:19;7.80;99.90
42615;DHT22;28754;47.700;7.924;2022-09-29T04:28:06;7.90;99.90
42615;DHT22;28754;47.700;7.924;2022-09-29T04:30:52;7.90;99.90
42615;DHT22;28754;47.700;7.924;2022-09-29T04:33:39;7.90;99.90
42615;DHT22;28754;47.700;7.924;2022-09-29T04:36:26;7.90;99.90
42615;DHT22;28754;47.700;7.924;2022-09-29T04:39:13;7.80;99.90
42615;DHT22;28754;47.700;7.924;2022-09-29T04:42:00;7.80;99.90
42615;DHT22;28754;47.700;7.924;2022-09-29T04:44:47;7.80;99.90
42615;DHT22;28754;47.700;7.924;2022-09-29T04:47:34;7.70;99.90
42615;DHT22;28754;47.700;7.924;2022-09-29T04:50:21;7.70;99.90
42615;DHT22;28754;47.700;7.924;2022-09-29T04:53:08;7.60;99.90
42615;DHT22;28754;47.700;7.924;2022-09-29T04:55:56;7.60;99.90
42615;DHT22;28754;47.700;7.924;2022-09-29T04:58:43;7.60;99.90
42615;DHT22;28754;47.700;7.924;2022-09-29T05:01:30;7.60;99.90
42615;DHT22;28754;47.700;7.924;2022-09-29T05:04:16;7.60;99.90
42615;DHT22;28754;47.700;7.924;2022-09-29T05:07:03;7.60;99.90
42615;DHT22;28754;47.700;7.924;2022-09-29T05:09:50;7.60;99.90
42615;DHT22;28754;47.700;7.924;2022-09-29T05:12:36;7.60;99.90
42615;DHT22;28754;47.700;7.924;2022-09-29T05:15:23;7.60;99.90
42615;DHT22;28754;47.700;7.924;2022-09-29T05:18:10;7.70;99.90
42615;DHT22;28754;47.700;7.924;2022-09-29T05:21:02;7.70;99.90
42615;DHT22;28754;47.700;7.924;2022-09-29T05:23:50;7.70;99.90
42615;DHT22;28754;47.700;7.924;2022-09-29T05:26:36;7.70;99.90
42615;DHT22;28754;47.700;7.924;2022-09-29T05:29:23;7.80;99.90
42615;DHT22;28754;47.700;7.924;2022-09-29T05:32:11;7.90;99.90
42615;DHT22;28754;47.700;7.924;2022-09-29T05:34:58;7.80;99.90
42615;DHT22;28754;47.700;7.924;2022-09-29T05:37:45;7.80;99.90
42615;DHT22;28754;47.700;7.924;2022-09-29T05:40:32;7.70;99.90
42615;DHT22;28754;47.700;7.924;2022-09-29T05:43:19;7.80;99.90
42615;DHT22;28754;47.700;7.924;2022-09-29T05:46:07;7.90;99.90
42615;DHT22;28754;47.700;7.924;2022-09-29T05:48:55;8.00;99.90
42615;DHT22;28754;47.700;7.924;2022-09-29T05:51:43;8.10;99.90
42615;DHT22;28754;47.700;7.924;2022-09-29T05:54:30;8.00;99.90
42615;DHT22;28754;47.700;7.924;2022-09-29T05:57:18;8.10;99.90
42615;DHT22;28754;47.700;7.924;2022-09-29T06:00:05;8.00;99.90
42615;DHT22;28754;47.700;7.924;2022-09-29T06:03:01;8.00;99.90
42615;DHT22;28754;47.700;7.924;2022-09-29T06:05:47;8.10;99.90
42615;DHT22;28754;47.700;7.924;2022-09-29T06:08:34;8.20;99.90
42615;DHT22;28754;47.700;7.924;2022-09-29T06:11:24;8.20;99.90
42615;DHT22;28754;47.700;7.924;2022-09-29T06:14:13;8.20;99.90
42615;DHT22;28754;47.700;7.924;2022-09-29T06:17:00;8.20;99.90
42615;DHT22;28754;47.700;7.924;2022-09-29T06:19:46;8.00;99.90
42615;DHT22;28754;47.700;7.924;2022-09-29T06:22:34;8.00;99.90
42615;DHT22;28754;47.700;7.924;2022-09-29T06:25:21;7.90;99.90
42615;DHT22;28754;47.700;7.924;2022-09-29T06:28:08;7.90;99.90
42615;DHT22;28754;47.700;7.924;2022-09-29T06:31:03;7.90;99.90
42615;DHT22;28754;47.700;7.924;2022-09-29T06:33:51;7.90;99.90
42615;DHT22;28754;47.700;7.924;2022-09-29T06:36:43;8.00;99.90
42615;DHT22;28754;47.700;7.924;2022-09-29T06:39:49;8.10;99.90
42615;DHT22;28754;47.700;7.924;2022-09-29T06:42:35;8.10;99.90
42615;DHT22;28754;47.700;7.924;2022-09-29T06:45:22;8.10;99.90
42615;DHT22;28754;47.700;7.924;2022-09-29T06:48:09;8.10;99.90
42615;DHT22;28754;47.700;7.924;2022-09-29T06:50:56;8.10;99.90
42615;DHT22;28754;47.700;7.924;2022-09-29T06:53:43;8.00;99.90
42615;DHT22;28754;47.700;7.924;2022-09-29T06:56:31;8.10;99.90
42615;DHT22;28754;47.700;7.924;2022-09-29T06:59:18;8.00;99.90
42615;DHT22;28754;47.700;7.924;2022-09-29T07:02:05;8.00;99.90
42615;DHT22;28754;47.700;7.924;2022-09-29T07:04:52;8.00;99.90
42615;DHT22;28754;47.700;7.924;2022-09-29T07:07:38;8.10;99.90
42615;DHT22;28754;47.700;7.924;2022-09-29T07:10:25;8.10;99.90
42615;DHT22;28754;47.700;7.924;2022-09-29T07:13:11;8.10;99.90
42615;DHT22;28754;47.700;7.924;2022-09-29T07:16:12;8.10;99.90
42615;DHT22;28754;47.700;7.924;2022-09-29T07:18:59;8.10;99.90
42615;DHT22;28754;47.700;7.924;2022-09-29T07:21:46;8.20;99.90
42615;DHT22;28754;47.700;7.924;2022-09-29T07:24:33;8.20;99.90
42615;DHT22;28754;47.700;7.924;2022-09-29T07:27:20;8.20;99.90
42615;DHT22;28754;47.700;7.924;2022-09-29T07:30:10;8.30;99.90
42615;DHT22;28754;47.700;7.924;2022-09-29T07:32:57;8.40;99.90
42615;DHT22;28754;47.700;7.924;2022-09-29T07:35:43;8.60;99.90
42615;DHT22;28754;47.700;7.924;2022-09-29T07:38:30;8.60;99.90
42615;DHT22;28754;47.700;7.924;2022-09-29T07:41:20;8.60;99.90
42615;DHT22;28754;47.700;7.924;2022-09-29T07:44:08;8.70;99.90
42615;DHT22;28754;47.700;7.924;2022-09-29T07:46:55;8.80;99.90
42615;DHT22;28754;47.700;7.924;2022-09-29T07:49:42;8.90;99.90
42615;DHT22;28754;47.700;7.924;2022-09-29T07:52:28;9.00;99.90
42615;DHT22;28754;47.700;7.924;2022-09-29T07:55:15;9.10;99.90
42615;DHT22;28754;47.700;7.924;2022-09-29T07:58:02;9.10;99.90
42615;DHT22;28754;47.700;7.924;2022-09-29T08:00:53;9.00;99.90
42615;DHT22;28754;47.700;7.924;2022-09-29T08:03:43;9.00;99.90
42615;DHT22;28754;47.700;7.924;2022-09-29T08:06:32;9.00;99.90
42615;DHT22;28754;47.700;7.924;2022-09-29T08:09:19;9.10;99.90
42615;DHT22;28754;47.700;7.924;2022-09-29T08:12:05;8.80;99.90
42615;DHT22;28754;47.700;7.924;2022-09-29T08:14:53;8.60;99.90
42615;DHT22;28754;47.700;7.924;2022-09-29T08:17:40;8.60;99.90
42615;DHT22;28754;47.700;7.924;2022-09-29T08:20:27;8.50;99.90
42615;DHT22;28754;47.700;7.924;2022-09-29T08:23:13;8.30;99.90
42615;DHT22;28754;47.700;7.924;2022-09-29T08:26:02;8.30;99.90
42615;DHT22;28754;47.700;7.924;2022-09-29T08:28:50;8.20;99.90
42615;DHT22;28754;47.700;7.924;2022-09-29T08:31:37;8.20;99.90
42615;DHT22;28754;47.700;7.924;2022-09-29T08:34:24;8.10;99.90
42615;DHT22;28754;47.700;7.924;2022-09-29T08:37:11;8.20;99.90
42615;DHT22;28754;47.700;7.924;2022-09-29T08:39:57;8.30;99.90
42615;DHT22;28754;47.700;7.924;2022-09-29T08:43:07;8.30;99.90
42615;DHT22;28754;47.700;7.924;2022-09-29T08:46:20;8.40;99.90
42615;DHT22;28754;47.700;7.924;2022-09-29T08:49:52;8.60;99.90
42615;DHT22;28754;47.700;7.924;2022-09-29T08:52:41;8.70;99.90
42615;DHT22;28754;47.700;7.924;2022-09-29T08:55:41;8.90;99.90
42615;DHT22;28754;47.700;7.924;2022-09-29T08:58:33;9.10;99.90
42615;DHT22;28754;47.700;7.924;2022-09-29T09:07:53;8.90;99.90
42615;DHT22;28754;47.700;7.924;2022-09-29T09:17:23;8.80;99.90
42615;DHT22;28754;47.700;7.924;2022-09-29T09:20:33;8.90;99.90
42615;DHT22;28754;47.700;7.924;2022-09-29T09:23:48;9.10;99.90
42615;DHT22;28754;47.700;7.924;2022-09-29T09:26:40;9.00;99.90
42615;DHT22;28754;47.700;7.924;2022-09-29T09:29:36;9.00;99.90
42615;DHT22;28754;47.700;7.924;2022-09-29T09:32:30;8.70;99.90
42615;DHT22;28754;47.700;7.924;2022-09-29T09:35:31;8.70;99.90
42615;DHT22;28754;47.700;7.924;2022-09-29T09:38:33;8.70;99.90
42615;DHT22;28754;47.700;7.924;2022-09-29T09:41:36;8.60;99.90
42615;DHT22;28754;47.700;7.924;2022-09-29T09:44:32;8.80;99.90
42615;DHT22;28754;47.700;7.924;2022-09-29T09:47:25;8.90;99.90
42615;DHT22;28754;47.700;7.924;2022-09-29T09:50:17;9.20;99.90
42615;DHT22;28754;47.700;7.924;2022-09-29T09:56:16;9.40;99.90
42615;DHT22;28754;47.700;7.924;2022-09-29T09:59:33;9.60;99.90
42615;DHT22;28754;47.700;7.924;2022-09-29T10:02:30;9.80;99.90
42615;DHT22;28754;47.700;7.924;2022-09-29T10:05:19;9.80;99.90
42615;DHT22;28754;47.700;7.924;2022-09-29T10:08:29;9.80;99.90
42615;DHT22;28754;47.700;7.924;2022-09-29T10:11:26;9.90;99.90
42615;DHT22;28754;47.700;7.924;2022-09-29T10:14:21;9.90;99.90
42615;DHT22;28754;47.700;7.924;2022-09-29T10:17:12;9.90;99.90
42615;DHT22;28754;47.700;7.924;2022-09-29T10:20:06;9.90;99.90
42615;DHT22;28754;47.700;7.924;2022-09-29T10:26:26;10.20;99.90
42615;DHT22;28754;47.700;7.924;2022-09-29T10:29:33;10.20;99.90
42615;DHT22;28754;47.700;7.924;2022-09-29T10:32:30;10.40;99.90
42615;DHT22;28754;47.700;7.924;2022-09-29T10:35:26;10.30;99.90
42615;DHT22;28754;47.700;7.924;2022-09-29T10:38:22;10.60;99.90
42615;DHT22;28754;47.700;7.924;2022-09-29T10:41:11;10.60;99.90
42615;DHT22;28754;47.700;7.924;2022-09-29T10:44:18;10.80;99.90
42615;DHT22;28754;47.700;7.924;2022-09-29T10:47:10;10.50;99.90
42615;DHT22;28754;47.700;7.924;2022-09-29T10:50:15;10.70;99.90
42615;DHT22;28754;47.700;7.924;2022-09-29T10:56:26;11.20;99.90
42615;DHT22;28754;47.700;7.924;2022-09-29T10:59:16;11.40;99.90
42615;DHT22;28754;47.700;7.924;2022-09-29T11:02:03;11.40;99.90
42615;DHT22;28754;47.700;7.924;2022-09-29T11:04:51;11.40;99.90
42615;DHT22;28754;47.700;7.924;2022-09-29T11:07:46;11.40;99.90
42615;DHT22;28754;47.700;7.924;2022-09-29T11:10:36;11.60;99.90
42615;DHT22;28754;47.700;7.924;2022-09-29T11:16:29;11.80;99.90
42615;DHT22;28754;47.700;7.924;2022-09-29T11:19:15;11.80;99.90
42615;DHT22;28754;47.700;7.924;2022-09-29T11:28:58;11.60;99.90
42615;DHT22;28754;47.700;7.924;2022-09-29T11:32:26;12.20;99.90
42615;DHT22;28754;47.700;7.924;2022-09-29T11:38:56;12.90;99.90
42615;DHT22;28754;47.700;7.924;2022-09-29T11:45:22;12.70;99.90
42615;DHT22;28754;47.700;7.924;2022-09-29T11:48:21;11.70;99.90
42615;DHT22;28754;47.700;7.924;2022-09-29T11:51:27;11.20;99.90
42615;DHT22;28754;47.700;7.924;2022-09-29T11:57:54;10.20;99.90
42615;DHT22;28754;47.700;7.924;2022-09-29T12:04:39;10.10;99.90
42615;DHT22;28754;47.700;7.924;2022-09-29T12:17:23;12.10;99.90
42615;DHT22;28754;47.700;7.924;2022-09-29T12:20:21;12.80;99.90
42615;DHT22;28754;47.700;7.924;2022-09-29T12:23:12;13.50;99.90
42615;DHT22;28754;47.700;7.924;2022-09-29T12:26:20;13.10;99.90
42615;DHT22;28754;47.700;7.924;2022-09-29T12:29:26;12.70;99.90
42615;DHT22;28754;47.700;7.924;2022-09-29T12:32:37;13.00;99.90
42615;DHT22;28754;47.700;7.924;2022-09-29T12:35:45;12.40;99.90
42615;DHT22;28754;47.700;7.924;2022-09-29T12:38:42;12.40;99.90
42615;DHT22;28754;47.700;7.924;2022-09-29T12:41:34;12.50;99.90
42615;DHT22;28754;47.700;7.924;2022-09-29T12:44:36;12.40;99.90
42615;DHT22;28754;47.700;7.924;2022-09-29T12:51:20;12.10;99.90
42615;DHT22;28754;47.700;7.924;2022-09-29T12:54:54;12.00;99.90
42615;DHT22;28754;47.700;7.924;2022-09-29T12:57:48;12.00;99.90
42615;DHT22;28754;47.700;7.924;2022-09-29T13:00:39;11.80;99.90
42615;DHT22;28754;47.700;7.924;2022-09-29T13:17:11;10.40;99.90
42615;DHT22;28754;47.700;7.924;2022-09-29T13:23:56;10.40;99.90
42615;DHT22;28754;47.700;7.924;2022-09-29T13:27:42;10.50;99.90
42615;DHT22;28754;47.700;7.924;2022-09-29T13:30:35;10.60;99.90
42615;DHT22;28754;47.700;7.924;2022-09-29T13:33:24;10.50;99.90
42615;DHT22;28754;47.700;7.924;2022-09-29T13:36:21;10.60;99.90
42615;DHT22;28754;47.700;7.924;2022-09-29T13:39:24;10.70;99.90
42615;DHT22;28754;47.700;7.924;2022-09-29T13:57:24;11.20;99.90
42615;DHT22;28754;47.700;7.924;2022-09-29T14:00:16;11.10;99.90
42615;DHT22;28754;47.700;7.924;2022-09-29T14:03:16;10.90;99.90
42615;DHT22;28754;47.700;7.924;2022-09-29T14:06:23;11.00;99.90
42615;DHT22;28754;47.700;7.924;2022-09-29T14:09:17;10.50;99.90
42615;DHT22;28754;47.700;7.924;2022-09-29T14:12:15;10.30;99.90
42615;DHT22;28754;47.700;7.924;2022-09-29T14:15:07;10.20;99.90
42615;DHT22;28754;47.700;7.924;2022-09-29T14:18:02;10.30;99.90
42615;DHT22;28754;47.700;7.924;2022-09-29T14:21:02;10.40;99.90
42615;DHT22;28754;47.700;7.924;2022-09-29T14:23:51;10.50;99.90
42615;DHT22;28754;47.700;7.924;2022-09-29T14:26:46;10.60;99.90
42615;DHT22;28754;47.700;7.924;2022-09-29T14:29:41;10.40;99.90
42615;DHT22;28754;47.700;7.924;2022-09-29T14:38:54;11.10;99.90
42615;DHT22;28754;47.700;7.924;2022-09-29T14:41:45;11.20;99.90
42615;DHT22;28754;47.700;7.924;2022-09-29T14:44:35;11.30;99.90
42615;DHT22;28754;47.700;7.924;2022-09-29T14:51:11;11.10;99.90
42615;DHT22;28754;47.700;7.924;2022-09-29T15:04:10;10.30;99.90
42615;DHT22;28754;47.700;7.924;2022-09-29T15:07:03;10.10;99.90
42615;DHT22;28754;47.700;7.924;2022-09-29T15:09:52;9.80;99.90
42615;DHT22;28754;47.700;7.924;2022-09-29T15:12:41;9.70;99.90
42615;DHT22;28754;47.700;7.924;2022-09-29T15:15:36;10.10;99.90
42615;DHT22;28754;47.700;7.924;2022-09-29T15:18:39;10.30;99.90
42615;DHT22;28754;47.700;7.924;2022-09-29T15:21:54;10.60;99.90
42615;DHT22;28754;47.700;7.924;2022-09-29T15:31:13;10.60;99.90
42615;DHT22;28754;47.700;7.924;2022-09-29T15:34:03;10.60;99.90
42615;DHT22;28754;47.700;7.924;2022-09-29T15:36:53;10.50;99.90
42615;DHT22;28754;47.700;7.924;2022-09-29T15:39:44;10.50;99.90
42615;DHT22;28754;47.700;7.924;2022-09-29T15:42:36;10.60;99.90
42615;DHT22;28754;47.700;7.924;2022-09-29T15:45:25;10.50;99.90
42615;DHT22;28754;47.700;7.924;2022-09-29T15:48:12;10.60;99.90
42615;DHT22;28754;47.700;7.924;2022-09-29T15:51:01;10.10;99.90
42615;DHT22;28754;47.700;7.924;2022-09-29T15:53:49;9.90;99.90
42615;DHT22;28754;47.700;7.924;2022-09-29T15:56:37;9.70;99.90
42615;DHT22;28754;47.700;7.924;2022-09-29T16:02:40;9.70;99.90
42615;DHT22;28754;47.700;7.924;2022-09-29T16:05:30;9.80;99.90
42615;DHT22;28754;47.700;7.924;2022-09-29T16:08:21;9.80;99.90
42615;DHT22;28754;47.700;7.924;2022-09-29T16:11:19;9.70;99.90
42615;DHT22;28754;47.700;7.924;2022-09-29T16:14:13;9.70;99.90
42615;DHT22;28754;47.700;7.924;2022-09-29T16:17:07;9.60;99.90
42615;DHT22;28754;47.700;7.924;2022-09-29T16:19:54;9.60;99.90
42615;DHT22;28754;47.700;7.924;2022-09-29T16:22:47;9.60;99.90
42615;DHT22;28754;47.700;7.924;2022-09-29T16:25:34;9.60;99.90
42615;DHT22;28754;47.700;7.924;2022-09-29T16:28:26;9.60;99.90
42615;DHT22;28754;47.700;7.924;2022-09-29T16:31:19;9.70;99.90
42615;DHT22;28754;47.700;7.924;2022-09-29T16:37:16;9.70;99.90
42615;DHT22;28754;47.700;7.924;2022-09-29T16:40:04;9.70;99.90
42615;DHT22;28754;47.700;7.924;2022-09-29T16:42:52;9.60;99.90
42615;DHT22;28754;47.700;7.924;2022-09-29T16:45:39;9.70;99.90
42615;DHT22;28754;47.700;7.924;2022-09-29T16:48:28;9.70;99.90
42615;DHT22;28754;47.700;7.924;2022-09-29T16:51:20;9.60;99.90
42615;DHT22;28754;47.700;7.924;2022-09-29T16:54:14;9.60;99.90
42615;DHT22;28754;47.700;7.924;2022-09-29T17:00:11;9.70;99.90
42615;DHT22;28754;47.700;7.924;2022-09-29T17:02:59;9.70;99.90
42615;DHT22;28754;47.700;7.924;2022-09-29T17:05:50;9.70;99.90
42615;DHT22;28754;47.700;7.924;2022-09-29T17:08:37;9.60;99.90
42615;DHT22;28754;47.700;7.924;2022-09-29T17:11:37;9.60;99.90
42615;DHT22;28754;47.700;7.924;2022-09-29T18:05:52;9.60;99.90
42615;DHT22;28754;47.700;7.924;2022-09-29T18:27:26;9.40;99.90
42615;DHT22;28754;47.700;7.924;2022-09-29T18:31:53;9.30;99.90
42615;DHT22;28754;47.700;7.924;2022-09-29T18:59:02;9.20;99.90
42615;DHT22;28754;47.700;7.924;2022-09-29T19:01:52;9.20;99.90
42615;DHT22;28754;47.700;7.924;2022-09-29T19:04:38;9.20;99.90
42615;DHT22;28754;47.700;7.924;2022-09-29T19:07:25;9.10;99.90
42615;DHT22;28754;47.700;7.924;2022-09-29T19:10:14;9.10;99.90
42615;DHT22;28754;47.700;7.924;2022-09-29T19:13:05;8.90;99.90
42615;DHT22;28754;47.700;7.924;2022-09-29T19:15:57;8.90;99.90
42615;DHT22;28754;47.700;7.924;2022-09-29T19:18:45;9.00;99.90
42615;DHT22;28754;47.700;7.924;2022-09-29T19:21:31;9.00;99.90
42615;DHT22;28754;47.700;7.924;2022-09-29T19:24:18;9.00;99.90
42615;DHT22;28754;47.700;7.924;2022-09-29T19:27:07;9.00;99.90
42615;DHT22;28754;47.700;7.924;2022-09-29T19:29:54;9.00;99.90
42615;DHT22;28754;47.700;7.924;2022-09-29T19:32:42;9.00;99.90
42615;DHT22;28754;47.700;7.924;2022-09-29T19:35:29;8.80;99.90
42615;DHT22;28754;47.700;7.924;2022-09-29T19:38:16;8.80;99.90
42615;DHT22;28754;47.700;7.924;2022-09-29T19:41:11;8.90;99.90
42615;DHT22;28754;47.700;7.924;2022-09-29T19:43:59;8.90;99.90
42615;DHT22;28754;47.700;7.924;2022-09-29T19:46:50;8.90;99.90
42615;DHT22;28754;47.700;7.924;2022-09-29T19:49:37;9.00;99.90
42615;DHT22;28754;47.700;7.924;2022-09-29T19:52:23;9.00;99.90
42615;DHT22;28754;47.700;7.924;2022-09-29T19:55:10;8.90;99.90
42615;DHT22;28754;47.700;7.924;2022-09-29T19:57:58;9.00;99.90
42615;DHT22;28754;47.700;7.924;2022-09-29T20:00:46;9.00;99.90
42615;DHT22;28754;47.700;7.924;2022-09-29T20:03:32;8.90;99.90
42615;DHT22;28754;47.700;7.924;2022-09-29T20:06:19;8.90;99.90
42615;DHT22;28754;47.700;7.924;2022-09-29T20:09:07;9.00;99.90
42615;DHT22;28754;47.700;7.924;2022-09-29T20:11:54;9.00;99.90
42615;DHT22;28754;47.700;7.924;2022-09-29T20:14:41;8.90;99.90
42615;DHT22;28754;47.700;7.924;2022-09-29T20:17:28;8.90;99.90
42615;DHT22;28754;47.700;7.924;2022-09-29T20:20:15;8.90;99.90
42615;DHT22;28754;47.700;7.924;2022-09-29T20:23:02;8.80;99.90
42615;DHT22;28754;47.700;7.924;2022-09-29T20:25:57;8.90;99.90
42615;DHT22;28754;47.700;7.924;2022-09-29T20:28:47;8.90;99.90
42615;DHT22;28754;47.700;7.924;2022-09-29T20:31:34;9.00;99.90
42615;DHT22;28754;47.700;7.924;2022-09-29T20:34:23;8.90;99.90
42615;DHT22;28754;47.700;7.924;2022-09-29T20:37:10;9.00;99.90
42615;DHT22;28754;47.700;7.924;2022-09-29T20:39:58;9.10;99.90
42615;DHT22;28754;47.700;7.924;2022-09-29T20:42:45;8.90;99.90
42615;DHT22;28754;47.700;7.924;2022-09-29T20:45:33;9.00;99.90
42615;DHT22;28754;47.700;7.924;2022-09-29T20:48:20;8.90;99.90
42615;DHT22;28754;47.700;7.924;2022-09-29T20:51:10;8.90;99.90
42615;DHT22;28754;47.700;7.924;2022-09-29T20:54:00;8.90;99.90
42615;DHT22;28754;47.700;7.924;2022-09-29T20:56:47;8.90;99.90
42615;DHT22;28754;47.700;7.924;2022-09-29T20:59:37;8.90;99.90
42615;DHT22;28754;47.700;7.924;2022-09-29T21:02:24;8.80;99.90
42615;DHT22;28754;47.700;7.924;2022-09-29T21:05:10;8.90;99.90
42615;DHT22;28754;47.700;7.924;2022-09-29T21:07:57;8.80;99.90
42615;DHT22;28754;47.700;7.924;2022-09-29T21:10:43;9.00;99.90
42615;DHT22;28754;47.700;7.924;2022-09-29T21:13:30;9.00;99.90
42615;DHT22;28754;47.700;7.924;2022-09-29T21:16:18;9.00;99.90
42615;DHT22;28754;47.700;7.924;2022-09-29T21:19:05;9.10;99.90
42615;DHT22;28754;47.700;7.924;2022-09-29T21:21:55;9.10;99.90
42615;DHT22;28754;47.700;7.924;2022-09-29T21:24:41;9.20;99.90
42615;DHT22;28754;47.700;7.924;2022-09-29T21:27:29;9.10;99.90
42615;DHT22;28754;47.700;7.924;2022-09-29T21:30:17;9.10;99.90
42615;DHT22;28754;47.700;7.924;2022-09-29T21:33:03;9.10;99.90
42615;DHT22;28754;47.700;7.924;2022-09-29T21:35:55;9.10;99.90
42615;DHT22;28754;47.700;7.924;2022-09-29T21:38:46;9.20;99.90
42615;DHT22;28754;47.700;7.924;2022-09-29T21:41:38;9.10;99.90
42615;DHT22;28754;47.700;7.924;2022-09-29T21:44:26;9.10;99.90
42615;DHT22;28754;47.700;7.924;2022-09-29T21:47:13;9.10;99.90
42615;DHT22;28754;47.700;7.924;2022-09-29T21:49:59;9.10;99.90
42615;DHT22;28754;47.700;7.924;2022-09-29T21:52:46;9.00;99.90
42615;DHT22;28754;47.700;7.924;2022-09-29T21:55:33;8.90;99.90
42615;DHT22;28754;47.700;7.924;2022-09-29T21:58:20;8.90;99.90
42615;DHT22;28754;47.700;7.924;2022-09-29T22:01:07;8.90;99.90
42615;DHT22;28754;47.700;7.924;2022-09-29T22:03:55;8.90;99.90
42615;DHT22;28754;47.700;7.924;2022-09-29T22:06:42;8.90;99.90
42615;DHT22;28754;47.700;7.924;2022-09-29T22:09:29;8.90;99.90
42615;DHT22;28754;47.700;7.924;2022-09-29T22:12:16;8.90;99.90
42615;DHT22;28754;47.700;7.924;2022-09-29T22:15:03;8.90;99.90
42615;DHT22;28754;47.700;7.924;2022-09-29T22:17:50;9.00;99.90
42615;DHT22;28754;47.700;7.924;2022-09-29T22:20:37;8.90;99.90
42615;DHT22;28754;47.700;7.924;2022-09-29T22:23:25;8.90;99.90